This is the latest recevied weather packets stored in our database for station/object 9W2YIE-13. If no packets are shown the sender has not sent any weather packets the latest 10 day(s).
| Time | Temp. | Humidity | Pressure | Rain* | Wind** | Luminosity | Snow |
|---|---|---|---|---|---|---|---|
| 1787468628 | 44.44° C | 31% | 1005 hPa | - | - | 0 W/m² | - |
| 1787467696 | 43.33° C | 33% | 1005 hPa | - | - | 0 W/m² | - |
| 1787466748 | 42.22° C | 34% | 1005 hPa | - | - | 0 W/m² | - |
| 1787465788 | 43.89° C | 33% | 1005 hPa | - | - | 0 W/m² | - |
| 1787464842 | 42.22° C | 35% | 1006 hPa | - | - | 0 W/m² | - |
| 1787463864 | 40.56° C | 38% | 1006 hPa | - | - | 0 W/m² | - |
| 1787462906 | 40.56° C | 38% | 1006 hPa | - | - | 0 W/m² | - |
| 1787461949 | 40° C | 40% | 1007 hPa | - | - | 0 W/m² | - |
| 1787461017 | 38.33° C | 43% | 1007 hPa | - | - | 0 W/m² | - |
| 1787460070 | 39.44° C | 41% | 1007 hPa | - | - | 0 W/m² | - |
| 1787459106 | 38.33° C | 44% | 1008 hPa | - | - | 0 W/m² | - |
| 1787458143 | 37.78° C | 44% | 1008 hPa | - | - | 0 W/m² | - |
| 1787457209 | 37.22° C | 46% | 1008 hPa | - | - | 0 W/m² | - |
| 1787456273 | 37.22° C | 47% | 1008 hPa | - | - | 0 W/m² | - |
| 1787455335 | 35.56° C | 50% | 1008 hPa | - | - | 0 W/m² | - |
| 1787454396 | 35.56° C | 48% | 1009 hPa | - | - | 0 W/m² | - |
| 1787453458 | 35° C | 51% | 1009 hPa | - | - | 0 W/m² | - |
| 1787452520 | 33.89° C | 53% | 1009 hPa | - | - | 0 W/m² | - |
| 1787451879 | 34.44° C | 53% | 1009 hPa | - | - | 0 W/m² | - |
| 1787450950 | 33.33° C | 56% | 1009 hPa | - | - | 0 W/m² | - |
| 1787450015 | 33.33° C | 56% | 1009 hPa | - | - | 0 W/m² | - |
| 1787448979 | 33.33° C | 56% | 1009 hPa | - | - | 0 W/m² | - |
| 1787448000 | 33.33° C | 56% | 1009 hPa | - | - | 0 W/m² | - |
| 1787447001 | 32.78° C | 58% | 1009 hPa | - | - | 0 W/m² | - |
| 1787446026 | 32.78° C | 57% | 1009 hPa | - | - | 0 W/m² | - |
* Rain since midnight (hover to see other rain measurements)
** Current wind speed in m/s (hover to see current wind gust speed)